createdAt,value
2022-08-11T00:00:20.972Z,5.25
2022-08-11T00:02:52.601Z,5.38
2022-08-11T00:05:21.457Z,4.95
2022-08-11T00:07:51.458Z,4.65
2022-08-11T00:10:23.861Z,4.37
2022-08-11T00:12:56.293Z,5.32
2022-08-11T00:15:24.608Z,5.45
2022-08-11T00:17:58.883Z,4.85
2022-08-11T00:20:32.517Z,5.35
2022-08-11T00:23:07.262Z,4.97
2022-08-11T00:25:40.909Z,5.00
2022-08-11T00:28:28.499Z,5.57
2022-08-11T00:30:57.462Z,5.07
2022-08-11T00:33:44.383Z,5.50
2022-08-11T00:36:15.356Z,5.27
2022-08-11T00:38:44.614Z,5.22
2022-08-11T00:41:17.956Z,5.68
2022-08-11T00:44:10.736Z,4.95
2022-08-11T00:47:12.238Z,5.30
2022-08-11T00:50:03.628Z,5.40
2022-08-11T00:52:48.169Z,5.32
2022-08-11T00:55:42.709Z,5.13
2022-08-11T00:58:59.098Z,5.50
2022-08-11T01:01:31.635Z,5.45
2022-08-11T01:04:26.164Z,5.77
2022-08-11T01:08:01.417Z,5.60
2022-08-11T01:10:47.812Z,5.97
2022-08-11T01:13:51.758Z,5.82
2022-08-11T01:16:46.183Z,5.70
2022-08-11T01:20:45.137Z,5.23
2022-08-11T01:22:40.262Z,5.45
2022-08-11T01:25:56.743Z,5.93
2022-08-11T01:28:59.058Z,5.60
2022-08-11T01:31:50.424Z,5.70
2022-08-11T01:34:50.829Z,5.50
2022-08-11T01:37:36.142Z,5.47
2022-08-11T01:40:23.193Z,6.03
2022-08-11T01:43:23.641Z,5.30
2022-08-11T01:46:32.747Z,6.20
2022-08-11T01:50:07.663Z,5.80
2022-08-11T01:52:33.676Z,6.70
2022-08-11T01:55:24.119Z,7.00
2022-08-11T01:58:06.654Z,6.07
2022-08-11T02:00:48.619Z,6.28
2022-08-11T02:03:27.676Z,6.30
2022-08-11T02:06:55.248Z,6.72
2022-08-11T02:09:49.870Z,6.90
2022-08-11T02:12:33.049Z,6.50
2022-08-11T02:15:29.237Z,6.45
2022-08-11T02:17:58.641Z,6.97
2022-08-11T02:21:15.118Z,6.28
2022-08-11T02:24:05.308Z,6.20
2022-08-11T02:26:44.482Z,6.07
2022-08-11T02:29:22.323Z,7.20
2022-08-11T02:32:39.342Z,6.10
2022-08-11T02:35:16.267Z,6.50
2022-08-11T02:37:52.351Z,6.53
2022-08-11T02:40:20.921Z,7.43
2022-08-11T02:43:16.506Z,6.13
2022-08-11T02:45:54.524Z,6.33
2022-08-11T02:48:39.649Z,6.95
2022-08-11T02:51:12.174Z,6.63
2022-08-11T02:53:56.330Z,6.88
2022-08-11T02:56:52.117Z,6.70
2022-08-11T02:59:50.203Z,6.23
2022-08-11T03:02:19.274Z,6.75
2022-08-11T03:05:02.420Z,7.60
2022-08-11T03:07:41.596Z,6.90
2022-08-11T03:10:29.787Z,7.07
2022-08-11T03:13:35.059Z,6.90
2022-08-11T03:16:46.550Z,7.15
2022-08-11T03:19:34.354Z,7.18
2022-08-11T03:22:13.249Z,6.82
2022-08-11T03:24:46.834Z,7.18
2022-08-11T03:27:13.233Z,6.90
2022-08-11T03:30:06.722Z,7.10
2022-08-11T03:32:42.253Z,7.07
2022-08-11T03:35:11.574Z,7.53
2022-08-11T03:38:02.715Z,6.75
2022-08-11T03:42:03.672Z,7.37
2022-08-11T03:44:10.687Z,7.40
2022-08-11T03:47:08.120Z,7.40
2022-08-11T03:50:11.974Z,6.93
2022-08-11T03:53:10.185Z,7.55
2022-08-11T03:56:04.068Z,7.53
2022-08-11T03:58:54.944Z,7.45
2022-08-11T04:01:36.516Z,7.57
2022-08-11T04:04:45.215Z,7.65
2022-08-11T04:07:52.583Z,7.57
2022-08-11T04:10:37.808Z,7.67
2022-08-11T04:13:26.784Z,7.47
2022-08-11T04:16:11.739Z,7.90
2022-08-11T04:19:06.434Z,7.57
2022-08-11T04:21:41.919Z,7.90
2022-08-11T04:24:38.083Z,7.83
2022-08-11T04:27:24.830Z,7.28
2022-08-11T04:30:05.505Z,8.35
2022-08-11T04:33:22.617Z,7.35
2022-08-11T04:36:09.525Z,7.22
2022-08-11T04:38:53.820Z,7.57
2022-08-11T04:41:27.967Z,7.90
2022-08-11T04:44:27.940Z,7.85
2022-08-11T04:47:05.255Z,7.70
2022-08-11T04:50:03.090Z,7.57
2022-08-11T04:53:01.274Z,7.17
2022-08-11T04:56:19.665Z,7.45
2022-08-11T04:59:19.460Z,7.80
2022-08-11T05:02:04.519Z,8.07
2022-08-11T05:05:32.402Z,7.75
2022-08-11T05:08:45.972Z,7.50
2022-08-11T05:11:30.657Z,7.13
2022-08-11T05:14:47.159Z,8.13
2022-08-11T05:17:40.686Z,7.95
2022-08-11T05:20:29.488Z,7.47
2022-08-11T05:23:20.079Z,7.27
2022-08-11T05:26:44.419Z,7.43
2022-08-11T05:29:21.438Z,7.05
2022-08-11T05:32:16.966Z,6.55
2022-08-11T05:34:56.811Z,6.80
2022-08-11T05:37:28.952Z,6.80
2022-08-11T05:40:25.929Z,5.90
2022-08-11T05:43:17.065Z,5.15
2022-08-11T05:46:06.254Z,5.35
2022-08-11T05:48:54.287Z,5.35
2022-08-11T05:51:54.972Z,4.80
2022-08-11T05:54:42.968Z,4.60
2022-08-11T05:57:39.551Z,4.28
2022-08-11T06:00:17.098Z,13.45
2022-08-11T06:02:49.333Z,4.70
2022-08-11T06:05:16.375Z,4.30
2022-08-11T06:07:49.541Z,4.50
2022-08-11T06:10:29.707Z,10.13
2022-08-11T06:12:58.201Z,5.30
2022-08-11T06:15:26.182Z,5.18
2022-08-11T06:17:53.982Z,4.83
2022-08-11T06:20:22.538Z,4.20
2022-08-11T06:22:57.481Z,4.30
2022-08-11T06:25:31.515Z,4.20
2022-08-11T06:27:59.361Z,4.05
2022-08-11T06:30:51.650Z,6.43
2022-08-11T06:33:39.608Z,4.22
2022-08-11T06:36:13.917Z,4.20
2022-08-11T06:38:56.718Z,4.10
2022-08-11T06:41:33.123Z,3.53
2022-08-11T06:44:11.744Z,3.50
2022-08-11T06:46:40.696Z,3.40
2022-08-11T06:49:29.442Z,3.45
2022-08-11T06:52:04.963Z,4.15
2022-08-11T06:54:41.360Z,7.57
2022-08-11T06:57:32.433Z,4.53
2022-08-11T07:00:22.545Z,3.55
2022-08-11T07:02:53.987Z,3.88
2022-08-11T07:05:49.620Z,3.30
2022-08-11T07:08:49.750Z,3.20
2022-08-11T07:12:22.448Z,3.10
2022-08-11T07:15:12.624Z,3.08
2022-08-11T07:17:49.943Z,3.20
2022-08-11T07:20:36.558Z,3.30
2022-08-11T07:23:26.538Z,3.10
2022-08-11T07:26:14.915Z,2.97
2022-08-11T07:28:56.122Z,3.00
2022-08-11T07:31:29.199Z,2.88
2022-08-11T07:34:18.516Z,3.20
2022-08-11T07:37:00.244Z,3.15
2022-08-11T07:39:31.648Z,3.17
2022-08-11T07:42:00.223Z,2.80
2022-08-11T07:44:34.965Z,3.35
2022-08-11T07:47:21.178Z,4.25
2022-08-11T07:50:08.929Z,3.88
2022-08-11T07:52:38.051Z,9.47
2022-08-11T07:55:08.457Z,4.03
2022-08-11T07:58:15.348Z,2.70
2022-08-11T08:01:10.771Z,4.15
2022-08-11T08:04:07.591Z,3.30
2022-08-11T08:06:52.663Z,3.07
2022-08-11T08:09:39.591Z,2.80
2022-08-11T08:12:26.684Z,4.78
2022-08-11T08:15:13.936Z,4.25
2022-08-11T08:18:09.996Z,2.40
2022-08-11T08:20:50.174Z,2.70
2022-08-11T08:23:32.842Z,2.40
2022-08-11T08:26:02.387Z,2.40
2022-08-11T08:28:32.504Z,2.40
2022-08-11T08:31:00.329Z,2.20
2022-08-11T08:33:30.369Z,2.20
2022-08-11T08:36:12.888Z,2.47
2022-08-11T08:38:50.645Z,2.40
2022-08-11T08:41:24.906Z,2.60
2022-08-11T08:43:56.415Z,2.25
2022-08-11T08:46:30.443Z,2.50
2022-08-11T08:49:01.981Z,2.85
2022-08-11T08:52:00.949Z,2.35
2022-08-11T08:54:26.453Z,2.85
2022-08-11T08:56:56.089Z,2.63
2022-08-11T08:59:26.054Z,3.47
2022-08-11T09:02:02.720Z,5.07
2022-08-11T09:04:31.050Z,2.33
2022-08-11T09:07:03.456Z,2.63
2022-08-11T09:09:31.918Z,2.75
2022-08-11T09:11:58.991Z,2.80
2022-08-11T09:14:50.789Z,2.42
2022-08-11T09:17:19.536Z,3.13
2022-08-11T09:19:49.461Z,2.70
2022-08-11T09:22:42.205Z,2.35
2022-08-11T09:25:27.966Z,2.43
2022-08-11T09:27:56.557Z,2.80
2022-08-11T09:30:27.871Z,2.45
2022-08-11T09:32:58.123Z,2.50
2022-08-11T09:35:29.465Z,2.72
2022-08-11T09:38:16.682Z,2.53
2022-08-11T09:40:52.725Z,2.50
2022-08-11T09:43:43.718Z,2.58
2022-08-11T09:46:11.154Z,2.88
2022-08-11T09:48:43.270Z,2.80
2022-08-11T09:51:10.811Z,2.93
2022-08-11T09:53:41.333Z,2.70
2022-08-11T09:56:31.723Z,2.90
2022-08-11T09:58:59.391Z,2.80
2022-08-11T10:01:30.693Z,3.38
2022-08-11T10:04:12.392Z,2.70
2022-08-11T10:06:58.229Z,2.90
2022-08-11T10:09:25.635Z,4.57
2022-08-11T10:11:58.104Z,2.70
2022-08-11T10:14:45.574Z,2.63
2022-08-11T10:17:14.791Z,2.77
2022-08-11T10:19:43.515Z,2.78
2022-08-11T10:22:29.078Z,2.55
2022-08-11T10:25:20.183Z,2.67
2022-08-11T10:28:32.659Z,2.58
2022-08-11T10:31:05.774Z,2.83
2022-08-11T10:33:59.336Z,2.60
2022-08-11T10:36:44.250Z,2.85
2022-08-11T10:39:17.096Z,2.60
2022-08-11T10:42:07.730Z,2.80
2022-08-11T10:44:40.859Z,2.57
2022-08-11T10:47:26.477Z,2.65
2022-08-11T10:50:12.508Z,2.80
2022-08-11T10:52:58.684Z,2.50
2022-08-11T10:55:45.402Z,2.70
2022-08-11T10:58:31.791Z,2.37
2022-08-11T11:01:00.702Z,2.40
2022-08-11T11:03:31.203Z,2.72
2022-08-11T11:06:27.807Z,2.60
2022-08-11T11:09:04.525Z,2.60
2022-08-11T11:11:55.641Z,2.53
2022-08-11T11:14:46.190Z,2.70
2022-08-11T11:17:53.396Z,2.72
2022-08-11T11:20:34.753Z,2.80
2022-08-11T11:23:10.111Z,2.72
2022-08-11T11:26:11.716Z,2.83
2022-08-11T11:28:56.151Z,2.70
2022-08-11T11:31:56.764Z,2.63
2022-08-11T11:34:54.004Z,2.63
2022-08-11T11:37:23.167Z,2.45
2022-08-11T11:39:50.336Z,2.73
2022-08-11T11:42:18.974Z,2.60
2022-08-11T11:44:47.009Z,2.50
2022-08-11T11:47:14.471Z,2.63
2022-08-11T11:49:45.148Z,2.75
2022-08-11T11:52:18.941Z,2.40
2022-08-11T11:54:52.024Z,2.85
2022-08-11T11:57:39.774Z,2.53
2022-08-11T12:00:33.806Z,2.70
2022-08-11T12:03:05.043Z,2.80
2022-08-11T12:05:34.409Z,2.70
2022-08-11T12:08:17.630Z,4.97
2022-08-11T12:11:23.163Z,2.65
2022-08-11T12:13:52.693Z,2.60
2022-08-11T12:16:34.023Z,3.10
2022-08-11T12:19:06.541Z,3.07
2022-08-11T12:21:36.122Z,2.70
2022-08-11T12:24:22.128Z,2.70
2022-08-11T12:27:16.625Z,2.65
2022-08-11T12:29:36.383Z,2.88
2022-08-11T12:32:08.434Z,2.80
2022-08-11T12:34:35.488Z,2.70
2022-08-11T12:37:05.755Z,2.67
2022-08-11T12:40:15.869Z,2.67
2022-08-11T12:43:04.020Z,2.33
2022-08-11T12:45:38.429Z,2.53
2022-08-11T12:48:57.963Z,2.67
2022-08-11T12:52:01.433Z,2.80
2022-08-11T12:54:41.935Z,2.47
2022-08-11T12:57:49.654Z,2.65
2022-08-11T13:00:36.948Z,2.37
2022-08-11T13:03:24.146Z,2.78
2022-08-11T13:05:54.443Z,2.47
2022-08-11T13:08:24.981Z,2.50
2022-08-11T13:11:15.596Z,2.40
2022-08-11T13:13:54.497Z,2.20
2022-08-11T13:16:57.857Z,2.50
2022-08-11T13:19:25.261Z,2.42
2022-08-11T13:21:53.345Z,2.42
2022-08-11T13:24:21.598Z,2.60
2022-08-11T13:26:50.827Z,2.13
2022-08-11T13:29:22.963Z,2.25
2022-08-11T13:31:50.464Z,2.20
2022-08-11T13:34:20.067Z,2.40
2022-08-11T13:36:50.333Z,2.45
2022-08-11T13:39:18.195Z,2.30
2022-08-11T13:41:47.781Z,2.50
2022-08-11T13:44:21.636Z,2.58
2022-08-11T13:46:53.103Z,2.60
2022-08-11T13:49:21.936Z,2.58
2022-08-11T13:51:49.487Z,2.23
2022-08-11T13:54:19.815Z,2.30
2022-08-11T13:56:52.734Z,2.20
2022-08-11T13:59:23.805Z,2.38
2022-08-11T14:02:20.771Z,2.20
2022-08-11T14:04:56.996Z,2.30
2022-08-11T14:07:27.428Z,2.08
2022-08-11T14:09:58.063Z,2.40
2022-08-11T14:12:47.806Z,2.10
2022-08-11T14:15:28.915Z,2.50
2022-08-11T14:18:03.131Z,2.20
2022-08-11T14:20:50.811Z,2.20
2022-08-11T14:23:19.460Z,2.30
2022-08-11T14:26:04.721Z,2.28
2022-08-11T14:28:40.030Z,2.45
2022-08-11T14:31:09.300Z,5.13
2022-08-11T14:33:58.773Z,3.58
2022-08-11T14:36:26.306Z,2.53
2022-08-11T14:38:54.278Z,2.30
2022-08-11T14:42:07.650Z,2.60
2022-08-11T14:44:47.548Z,2.47
2022-08-11T14:47:23.250Z,2.70
2022-08-11T14:50:09.719Z,2.60
2022-08-11T14:52:38.850Z,2.70
2022-08-11T14:55:26.070Z,2.80
2022-08-11T14:57:54.897Z,2.70
2022-08-11T15:00:23.416Z,2.90
2022-08-11T15:03:08.465Z,2.58
2022-08-11T15:05:36.460Z,3.00
2022-08-11T15:08:05.465Z,2.90
2022-08-11T15:10:32.600Z,2.80
2022-08-11T15:13:00.555Z,2.80
2022-08-11T15:15:46.779Z,2.88
2022-08-11T15:18:18.478Z,3.20
2022-08-11T15:21:04.026Z,2.50
2022-08-11T15:23:49.691Z,2.80
2022-08-11T15:26:42.866Z,2.90
2022-08-11T15:29:31.282Z,2.90
2022-08-11T15:32:17.169Z,2.88
2022-08-11T15:35:06.589Z,3.00
2022-08-11T15:37:35.581Z,3.10
2022-08-11T15:40:46.919Z,3.40
2022-08-11T15:43:39.594Z,3.05
2022-08-11T15:46:19.808Z,3.00
2022-08-11T15:48:51.386Z,3.35
2022-08-11T15:51:25.185Z,2.90
2022-08-11T15:54:07.103Z,3.28
2022-08-11T15:56:41.666Z,3.40
2022-08-11T15:59:43.014Z,3.10
2022-08-11T16:02:17.467Z,3.13
2022-08-11T16:04:46.329Z,3.10
2022-08-11T16:07:19.174Z,2.97
2022-08-11T16:09:57.026Z,3.08
2022-08-11T16:12:30.564Z,2.90
2022-08-11T16:15:20.615Z,3.30
2022-08-11T16:17:51.571Z,3.23
2022-08-11T16:20:21.912Z,2.97
2022-08-11T16:23:01.229Z,3.30
2022-08-11T16:26:38.023Z,3.22
2022-08-11T16:28:18.739Z,3.22
2022-08-11T16:30:46.623Z,3.47
2022-08-11T16:33:48.237Z,3.40
2022-08-11T16:36:22.553Z,3.55
2022-08-11T16:38:49.564Z,4.40
2022-08-11T16:41:38.411Z,4.00
2022-08-11T16:44:36.876Z,3.33
2022-08-11T16:47:07.117Z,3.10
2022-08-11T16:49:37.612Z,3.20
2022-08-11T16:52:10.884Z,3.05
2022-08-11T16:54:40.299Z,3.33
2022-08-11T16:57:34.744Z,3.20
2022-08-11T17:00:06.605Z,3.22
2022-08-11T17:02:55.616Z,3.35
2022-08-11T17:05:53.924Z,2.90
2022-08-11T17:08:55.895Z,3.20
2022-08-11T17:11:46.363Z,3.30
2022-08-11T17:14:35.579Z,3.17
2022-08-11T17:17:06.032Z,3.25
2022-08-11T17:20:39.528Z,3.40
2022-08-11T17:22:48.412Z,3.33
2022-08-11T17:25:17.365Z,3.30
2022-08-11T17:27:46.544Z,3.33
2022-08-11T17:30:14.792Z,3.50
2022-08-11T17:33:07.286Z,3.20
2022-08-11T17:35:38.790Z,3.50
2022-08-11T17:38:10.640Z,4.20
2022-08-11T17:40:39.803Z,3.80
2022-08-11T17:43:27.208Z,3.70
2022-08-11T17:46:14.123Z,3.22
2022-08-11T17:48:47.409Z,3.20
2022-08-11T17:51:38.575Z,3.23
2022-08-11T17:54:26.270Z,3.50
2022-08-11T17:57:20.405Z,3.25
2022-08-11T17:59:52.802Z,3.45
2022-08-11T18:02:42.422Z,3.47
2022-08-11T18:05:13.374Z,3.70
2022-08-11T18:08:01.642Z,3.80
2022-08-11T18:10:49.520Z,3.60
2022-08-11T18:13:41.309Z,3.30
2022-08-11T18:16:27.223Z,3.38
2022-08-11T18:19:13.271Z,3.67
2022-08-11T18:22:14.614Z,6.97
2022-08-11T18:25:09.801Z,4.22
2022-08-11T18:27:59.140Z,3.35
2022-08-11T18:30:45.627Z,3.40
2022-08-11T18:34:05.466Z,3.53
2022-08-11T18:36:45.468Z,3.58
2022-08-11T18:39:33.090Z,3.10
2022-08-11T18:42:29.555Z,3.70
2022-08-11T18:45:18.899Z,3.60
2022-08-11T18:48:07.422Z,4.20
2022-08-11T18:51:29.501Z,3.65
2022-08-11T18:54:05.982Z,3.92
2022-08-11T18:56:51.605Z,3.78
2022-08-11T18:59:38.798Z,3.58
2022-08-11T19:02:25.051Z,3.60
2022-08-11T19:05:11.170Z,3.63
2022-08-11T19:07:58.247Z,3.67
2022-08-11T19:10:43.851Z,3.80
2022-08-11T19:13:29.310Z,3.15
2022-08-11T19:16:15.080Z,3.63
2022-08-11T19:19:03.834Z,3.78
2022-08-11T19:21:49.626Z,3.78
2022-08-11T19:24:35.443Z,3.63
2022-08-11T19:27:21.463Z,4.20
2022-08-11T19:30:13.944Z,3.73
2022-08-11T19:33:00.487Z,3.72
2022-08-11T19:35:47.042Z,3.88
2022-08-11T19:38:32.867Z,10.43
2022-08-11T19:41:56.627Z,4.53
2022-08-11T19:44:24.914Z,3.90
2022-08-11T19:47:11.202Z,4.15
2022-08-11T19:50:00.773Z,4.22
2022-08-11T19:52:47.117Z,4.28
2022-08-11T19:55:33.731Z,3.90
2022-08-11T19:58:20.872Z,3.77
2022-08-11T20:01:07.371Z,4.00
2022-08-11T20:03:52.663Z,3.95
2022-08-11T20:06:38.967Z,3.80
2022-08-11T20:09:25.699Z,4.22
2022-08-11T20:12:30.766Z,3.60
2022-08-11T20:15:17.601Z,4.40
2022-08-11T20:18:03.907Z,3.80
2022-08-11T20:20:50.463Z,3.83
2022-08-11T20:23:36.255Z,4.47
2022-08-11T20:26:31.759Z,4.00
2022-08-11T20:29:18.748Z,4.18
2022-08-11T20:32:09.258Z,3.85
2022-08-11T20:34:57.303Z,3.97
2022-08-11T20:37:50.226Z,4.13
2022-08-11T20:40:39.790Z,4.10
2022-08-11T20:44:08.223Z,4.25
2022-08-11T20:46:37.148Z,4.03
2022-08-11T20:49:24.695Z,4.03
2022-08-11T20:52:10.750Z,4.20
2022-08-11T20:54:57.540Z,4.17
2022-08-11T20:57:59.419Z,4.55
2022-08-11T21:00:50.950Z,4.10
2022-08-11T21:03:45.228Z,4.35
2022-08-11T21:06:44.125Z,3.95
2022-08-11T21:10:01.241Z,4.27
2022-08-11T21:12:38.093Z,4.35
2022-08-11T21:15:46.880Z,4.20
2022-08-11T21:18:33.468Z,4.35
2022-08-11T21:21:25.200Z,4.55
2022-08-11T21:24:12.584Z,4.40
2022-08-11T21:27:03.823Z,4.53
2022-08-11T21:29:52.762Z,4.20
2022-08-11T21:32:40.252Z,4.40
2022-08-11T21:35:27.889Z,4.10
2022-08-11T21:38:15.136Z,4.20
2022-08-11T21:41:00.699Z,5.13
2022-08-11T21:43:51.218Z,4.80
2022-08-11T21:46:42.475Z,4.63
2022-08-11T21:49:28.859Z,4.50
2022-08-11T21:52:14.044Z,4.40
2022-08-11T21:54:59.668Z,4.40
2022-08-11T21:57:48.115Z,4.85
2022-08-11T22:00:35.480Z,4.25
2022-08-11T22:03:21.250Z,4.53
2022-08-11T22:06:07.802Z,4.00
2022-08-11T22:08:52.961Z,4.20
2022-08-11T22:11:38.905Z,4.47
2022-08-11T22:14:24.211Z,4.28
2022-08-11T22:17:09.763Z,4.68
2022-08-11T22:19:56.222Z,4.00
2022-08-11T22:22:53.278Z,4.50
2022-08-11T22:25:51.037Z,4.35
2022-08-11T22:28:37.587Z,4.72
2022-08-11T22:31:24.365Z,4.57
2022-08-11T22:34:09.468Z,4.30
2022-08-11T22:36:55.557Z,4.65
2022-08-11T22:39:43.227Z,4.60
2022-08-11T22:42:33.938Z,4.25
2022-08-11T22:45:19.632Z,4.50
2022-08-11T22:48:06.530Z,4.70
2022-08-11T22:50:52.643Z,4.20
2022-08-11T22:53:55.220Z,4.43
2022-08-11T22:56:43.893Z,4.10
2022-08-11T22:59:29.067Z,4.63
2022-08-11T23:02:14.384Z,4.77
2022-08-11T23:05:00.173Z,4.47
2022-08-11T23:07:51.454Z,4.40
2022-08-11T23:10:38.939Z,4.30
2022-08-11T23:13:25.622Z,4.65
2022-08-11T23:16:13.052Z,4.53
2022-08-11T23:18:59.598Z,4.32
2022-08-11T23:21:46.700Z,4.05
2022-08-11T23:24:32.421Z,4.32
2022-08-11T23:27:18.932Z,4.47
2022-08-11T23:30:06.255Z,4.50
2022-08-11T23:32:51.990Z,4.40
2022-08-11T23:35:53.637Z,4.50
2022-08-11T23:38:42.331Z,4.22
2022-08-11T23:41:27.538Z,4.60
2022-08-11T23:44:13.252Z,4.50
2022-08-11T23:46:58.826Z,4.95
2022-08-11T23:49:44.918Z,4.50
2022-08-11T23:52:30.899Z,4.90
2022-08-11T23:55:17.630Z,5.00
2022-08-11T23:58:02.911Z,4.77
